createdAt,value
2022-08-17T00:01:51.262Z,4.88
2022-08-17T00:04:20.297Z,5.05
2022-08-17T00:06:48.699Z,5.40
2022-08-17T00:09:18.458Z,5.15
2022-08-17T00:12:41.777Z,4.90
2022-08-17T00:14:35.897Z,5.20
2022-08-17T00:17:04.753Z,5.13
2022-08-17T00:19:32.766Z,5.30
2022-08-17T00:22:34.207Z,5.30
2022-08-17T00:24:49.695Z,4.72
2022-08-17T00:27:16.638Z,5.22
2022-08-17T00:29:45.368Z,4.47
2022-08-17T00:33:23.255Z,4.65
2022-08-17T00:35:00.603Z,4.65
2022-08-17T00:37:27.679Z,5.18
2022-08-17T00:39:56.422Z,5.25
2022-08-17T00:42:26.348Z,5.55
2022-08-17T00:44:55.666Z,4.80
2022-08-17T00:47:22.372Z,5.35
2022-08-17T00:49:49.051Z,5.30
2022-08-17T00:52:21.570Z,4.65
2022-08-17T00:54:52.193Z,5.10
2022-08-17T00:57:24.792Z,5.53
2022-08-17T01:00:02.440Z,5.75
2022-08-17T01:02:42.253Z,4.88
2022-08-17T01:05:16.293Z,4.93
2022-08-17T01:07:46.667Z,4.70
2022-08-17T01:10:59.823Z,4.80
2022-08-17T01:13:03.226Z,5.75
2022-08-17T01:15:35.971Z,4.78
2022-08-17T01:18:05.307Z,4.63
2022-08-17T01:20:32.434Z,4.60
2022-08-17T01:23:19.871Z,5.57
2022-08-17T01:25:56.648Z,4.70
2022-08-17T01:28:33.234Z,5.55
2022-08-17T01:31:12.758Z,5.35
2022-08-17T01:33:39.610Z,5.40
2022-08-17T01:36:07.963Z,5.18
2022-08-17T01:38:36.488Z,5.35
2022-08-17T01:41:08.158Z,5.35
2022-08-17T01:43:43.258Z,5.47
2022-08-17T01:46:24.511Z,4.93
2022-08-17T01:48:51.405Z,5.32
2022-08-17T01:51:19.044Z,5.20
2022-08-17T01:53:54.148Z,5.35
2022-08-17T01:56:24.332Z,5.43
2022-08-17T01:58:51.785Z,5.30
2022-08-17T02:01:21.020Z,5.00
2022-08-17T02:03:59.506Z,5.60
2022-08-17T02:06:45.097Z,6.20
2022-08-17T02:09:22.279Z,6.15
2022-08-17T02:11:50.744Z,6.28
2022-08-17T02:14:18.017Z,6.18
2022-08-17T02:16:44.801Z,5.97
2022-08-17T02:19:15.698Z,5.90
2022-08-17T02:21:47.971Z,5.80
2022-08-17T02:58:41.088Z,5.53
2022-08-17T03:01:09.709Z,5.03
2022-08-17T03:03:37.493Z,5.18
2022-08-17T03:06:05.739Z,4.72
2022-08-17T03:08:32.406Z,5.60
2022-08-17T03:10:59.484Z,4.80
2022-08-17T03:13:27.237Z,5.10
2022-08-17T03:15:54.535Z,5.28
2022-08-17T03:18:25.671Z,5.30
2022-08-17T03:20:59.800Z,5.60
2022-08-17T03:23:27.919Z,5.18
2022-08-17T03:25:56.946Z,5.60
2022-08-17T03:28:24.247Z,5.32
2022-08-17T03:30:52.010Z,5.40
2022-08-17T03:33:19.768Z,5.20
2022-08-17T03:35:47.272Z,5.53
2022-08-17T03:38:15.849Z,5.47
2022-08-17T03:40:56.464Z,4.97
2022-08-17T03:43:25.389Z,4.78
2022-08-17T03:46:27.607Z,5.40
2022-08-17T03:49:16.871Z,5.13
2022-08-17T03:52:02.277Z,5.20
2022-08-17T03:54:47.917Z,4.90
2022-08-17T03:57:14.997Z,5.00
2022-08-17T03:59:41.844Z,5.40
2022-08-17T04:02:30.116Z,5.15
2022-08-17T04:04:57.251Z,5.47
2022-08-17T04:07:27.449Z,5.45
2022-08-17T04:09:56.083Z,5.47
2022-08-17T04:12:24.148Z,5.07
2022-08-17T04:14:53.245Z,5.50
2022-08-17T04:17:26.819Z,5.40
2022-08-17T04:19:54.525Z,5.78
2022-08-17T04:22:33.039Z,5.35
2022-08-17T04:25:15.175Z,5.03
2022-08-17T04:27:41.953Z,5.30
2022-08-17T04:30:09.693Z,5.43
2022-08-17T04:33:06.319Z,5.20
2022-08-17T04:35:43.515Z,4.93
2022-08-17T04:38:13.049Z,5.13
2022-08-17T04:40:58.499Z,5.28
2022-08-17T04:43:26.876Z,5.47
2022-08-17T04:45:57.755Z,5.53
2022-08-17T04:48:36.295Z,5.20
2022-08-17T04:51:36.968Z,5.45
2022-08-17T04:54:10.257Z,5.03
2022-08-17T04:56:37.558Z,5.40
2022-08-17T04:59:08.803Z,4.97
2022-08-17T05:01:38.146Z,5.18
2022-08-17T05:04:33.110Z,5.53
2022-08-17T05:06:55.709Z,5.00
2022-08-17T05:09:22.614Z,5.45
2022-08-17T05:11:52.090Z,5.22
2022-08-17T05:14:18.783Z,4.95
2022-08-17T05:16:48.153Z,5.20
2022-08-17T05:19:14.832Z,5.40
2022-08-17T05:21:41.600Z,4.93
2022-08-17T05:24:38.189Z,4.80
2022-08-17T05:26:55.128Z,5.50
2022-08-17T05:29:22.079Z,5.03
2022-08-17T05:32:37.896Z,5.05
2022-08-17T05:34:59.845Z,5.57
2022-08-17T05:37:26.580Z,4.95
2022-08-17T05:39:54.011Z,4.80
2022-08-17T05:42:22.163Z,4.60
2022-08-17T05:44:48.919Z,4.70
2022-08-17T05:47:15.995Z,4.95
2022-08-17T05:49:42.662Z,4.85
2022-08-17T05:52:37.595Z,4.20
2022-08-17T05:55:29.406Z,5.03
2022-08-17T05:58:10.985Z,4.47
2022-08-17T06:01:09.000Z,5.37
2022-08-17T06:03:46.745Z,4.90
2022-08-17T06:06:44.647Z,4.95
2022-08-17T06:09:39.594Z,4.82
2022-08-17T06:12:25.139Z,4.72
2022-08-17T06:15:26.237Z,4.80
2022-08-17T06:17:58.863Z,4.82
2022-08-17T06:20:29.864Z,5.38
2022-08-17T06:23:04.330Z,4.60
2022-08-17T06:25:43.143Z,4.88
2022-08-17T06:28:14.663Z,4.88
2022-08-17T06:30:58.590Z,4.68
2022-08-17T06:33:34.126Z,5.30
2022-08-17T06:36:16.026Z,5.22
2022-08-17T06:39:01.398Z,4.82
2022-08-17T06:41:52.290Z,5.60
2022-08-17T06:44:49.831Z,5.00
2022-08-17T06:47:37.670Z,5.05
2022-08-17T06:50:21.538Z,5.75
2022-08-17T06:53:18.427Z,5.38
2022-08-17T06:56:06.264Z,4.55
2022-08-17T06:58:35.702Z,4.50
2022-08-17T07:01:10.456Z,5.20
2022-08-17T07:03:46.791Z,4.47
2022-08-17T07:06:19.736Z,4.55
2022-08-17T07:08:59.050Z,4.78
2022-08-17T07:11:46.955Z,5.22
2022-08-17T07:14:55.404Z,5.72
2022-08-17T07:17:46.813Z,5.20
2022-08-17T07:20:15.301Z,5.50
2022-08-17T07:23:15.477Z,4.43
2022-08-17T07:25:42.267Z,5.18
2022-08-17T07:28:08.928Z,4.80
2022-08-17T07:30:49.151Z,4.70
2022-08-17T07:33:19.907Z,5.05
2022-08-17T07:35:48.233Z,5.30
2022-08-17T07:38:28.148Z,4.78
2022-08-17T07:41:03.258Z,4.75
2022-08-17T07:43:41.315Z,4.70
2022-08-17T07:47:05.659Z,5.28
2022-08-17T07:49:32.331Z,4.63
2022-08-17T07:52:24.273Z,4.80
2022-08-17T07:54:50.432Z,4.32
2022-08-17T07:57:20.069Z,4.43
2022-08-17T08:00:16.267Z,4.45
2022-08-17T08:02:46.075Z,4.40
2022-08-17T08:05:30.739Z,4.65
2022-08-17T08:08:33.410Z,5.38
2022-08-17T08:11:09.207Z,4.60
2022-08-17T08:13:43.643Z,4.05
2022-08-17T08:16:31.580Z,3.70
2022-08-17T08:19:02.683Z,4.40
2022-08-17T08:21:46.547Z,4.70
2022-08-17T08:24:51.541Z,4.50
2022-08-17T08:27:42.482Z,4.50
2022-08-17T08:30:16.709Z,4.50
2022-08-17T08:33:04.577Z,4.57
2022-08-17T08:35:32.943Z,4.28
2022-08-17T08:38:18.508Z,4.30
2022-08-17T08:41:04.103Z,4.88
2022-08-17T08:45:00.377Z,4.00
2022-08-17T08:47:44.934Z,3.38
2022-08-17T08:50:37.619Z,3.47
2022-08-17T08:53:07.396Z,3.67
2022-08-17T08:55:53.026Z,3.25
2022-08-17T08:58:44.014Z,3.33
2022-08-17T09:01:26.176Z,3.35
2022-08-17T09:04:25.007Z,3.78
2022-08-17T09:07:11.025Z,3.38
2022-08-17T09:09:56.175Z,3.67
2022-08-17T09:12:31.822Z,4.10
2022-08-17T09:15:32.012Z,4.25
2022-08-17T09:19:00.390Z,4.07
2022-08-17T09:21:13.455Z,4.03
2022-08-17T09:24:00.126Z,4.30
2022-08-17T09:26:35.830Z,4.30
2022-08-17T09:29:09.961Z,4.20
2022-08-17T09:31:52.479Z,4.40
2022-08-17T09:34:33.003Z,4.28
2022-08-17T09:37:30.368Z,4.53
2022-08-17T09:40:09.492Z,4.20
2022-08-17T09:42:45.039Z,3.97
2022-08-17T09:46:02.272Z,3.80
2022-08-17T09:48:55.110Z,4.18
2022-08-17T09:51:30.816Z,4.43
2022-08-17T09:54:14.764Z,4.50
2022-08-17T09:57:25.856Z,3.55
2022-08-17T10:00:16.597Z,3.65
2022-08-17T10:02:54.741Z,4.10
2022-08-17T10:05:40.226Z,4.20
2022-08-17T10:08:44.832Z,4.35
2022-08-17T10:11:48.424Z,4.05
2022-08-17T10:14:44.181Z,4.15
2022-08-17T10:17:44.983Z,4.90
2022-08-17T10:20:20.321Z,4.30
2022-08-17T10:23:21.047Z,3.58
2022-08-17T10:26:12.898Z,3.90
2022-08-17T10:29:26.456Z,3.70
2022-08-17T10:32:04.171Z,3.67
2022-08-17T10:34:42.787Z,3.38
2022-08-17T10:37:43.978Z,3.15
2022-08-17T10:40:51.741Z,3.45
2022-08-17T10:43:31.122Z,3.92
2022-08-17T10:46:10.683Z,3.97
2022-08-17T10:51:40.521Z,3.40
2022-08-17T10:54:26.392Z,3.45
2022-08-17T10:56:55.883Z,3.40
2022-08-17T10:59:35.283Z,3.70
2022-08-17T11:02:05.091Z,3.75
2022-08-17T11:04:57.578Z,4.10
2022-08-17T11:07:45.725Z,3.20
2022-08-17T11:10:42.941Z,3.70
2022-08-17T11:13:15.930Z,3.45
2022-08-17T11:16:07.659Z,3.15
2022-08-17T11:18:53.686Z,3.67
2022-08-17T11:21:35.889Z,3.58
2022-08-17T11:27:22.379Z,4.00
2022-08-17T11:30:02.294Z,3.47
2022-08-17T11:32:32.795Z,3.40
2022-08-17T11:35:21.833Z,3.50
2022-08-17T11:38:15.926Z,3.42
2022-08-17T11:41:07.562Z,3.65
2022-08-17T11:43:59.043Z,3.67
2022-08-17T11:47:13.348Z,3.97
2022-08-17T11:50:25.809Z,4.10
2022-08-17T11:52:54.968Z,3.53
2022-08-17T11:55:38.182Z,3.45
2022-08-17T11:58:28.275Z,3.78
2022-08-17T12:01:01.429Z,3.10
2022-08-17T12:03:56.870Z,3.50
2022-08-17T12:06:35.179Z,3.13
2022-08-17T12:09:32.534Z,3.03
2022-08-17T12:12:14.353Z,3.05
2022-08-17T12:15:09.684Z,3.17
2022-08-17T12:17:40.863Z,3.50
2022-08-17T12:20:34.910Z,3.50
2022-08-17T12:23:07.482Z,3.25
2022-08-17T12:25:42.914Z,3.00
2022-08-17T12:28:33.915Z,3.20
2022-08-17T12:31:04.221Z,2.97
2022-08-17T12:33:31.259Z,3.63
2022-08-17T12:36:05.633Z,3.17
2022-08-17T12:38:38.062Z,3.35
2022-08-17T12:41:26.249Z,3.33
2022-08-17T12:44:03.216Z,3.88
2022-08-17T12:46:33.741Z,3.22
2022-08-17T12:49:29.723Z,3.38
2022-08-17T12:52:05.694Z,3.60
2022-08-17T12:55:02.198Z,3.63
2022-08-17T12:57:45.943Z,3.50
2022-08-17T13:00:24.975Z,3.65
2022-08-17T13:02:55.042Z,3.50
2022-08-17T13:05:43.189Z,3.28
2022-08-17T13:08:47.963Z,3.40
2022-08-17T13:11:14.600Z,3.30
2022-08-17T13:13:44.537Z,3.50
2022-08-17T13:16:16.986Z,2.92
2022-08-17T13:18:49.733Z,3.38
2022-08-17T13:21:28.142Z,3.53
2022-08-17T13:24:04.198Z,3.83
2022-08-17T13:26:44.469Z,3.92
2022-08-17T13:29:29.943Z,3.13
2022-08-17T13:32:19.804Z,3.35
2022-08-17T13:35:12.154Z,3.65
2022-08-17T13:37:36.653Z,3.38
2022-08-17T13:40:09.333Z,3.30
2022-08-17T13:42:52.178Z,3.40
2022-08-17T13:45:38.998Z,3.50
2022-08-17T13:48:27.039Z,3.40
2022-08-17T13:50:56.501Z,3.08
2022-08-17T13:53:26.241Z,3.20
2022-08-17T13:56:37.168Z,3.58
2022-08-17T13:59:11.114Z,3.67
2022-08-17T14:01:53.475Z,3.55
2022-08-17T14:04:34.029Z,3.40
2022-08-17T14:07:13.009Z,3.13
2022-08-17T14:09:59.680Z,3.45
2022-08-17T14:12:29.242Z,3.80
2022-08-17T14:14:56.673Z,3.63
2022-08-17T14:17:25.399Z,3.47
2022-08-17T14:19:53.031Z,3.67
2022-08-17T14:22:32.706Z,3.60
2022-08-17T14:25:03.916Z,3.38
2022-08-17T14:27:41.812Z,3.70
2022-08-17T14:30:22.954Z,3.95
2022-08-17T14:32:51.660Z,3.50
2022-08-17T14:35:21.522Z,3.25
2022-08-17T14:37:48.782Z,3.90
2022-08-17T14:40:16.772Z,3.72
2022-08-17T14:42:46.031Z,3.33
2022-08-17T14:45:30.368Z,3.72
2022-08-17T14:48:07.520Z,3.40
2022-08-17T14:50:40.550Z,3.50
2022-08-17T14:53:09.917Z,3.75
2022-08-17T14:55:39.677Z,3.13
2022-08-17T14:58:07.576Z,3.40
2022-08-17T15:00:34.835Z,3.33
2022-08-17T15:03:02.725Z,3.70
2022-08-17T15:05:33.491Z,3.80
2022-08-17T15:08:01.125Z,3.53
2022-08-17T15:10:29.706Z,4.65
2022-08-17T15:12:56.983Z,3.30
2022-08-17T15:15:24.046Z,3.50
2022-08-17T15:17:51.480Z,3.40
2022-08-17T15:20:21.558Z,3.50
2022-08-17T15:22:55.022Z,4.10
2022-08-17T15:25:22.994Z,3.97
2022-08-17T15:27:50.274Z,4.10
2022-08-17T15:30:17.094Z,3.85
2022-08-17T15:32:51.105Z,3.90
2022-08-17T15:35:27.482Z,4.13
2022-08-17T15:38:10.760Z,4.10
2022-08-17T15:40:44.672Z,3.95
2022-08-17T15:43:24.819Z,3.75
2022-08-17T15:46:06.928Z,3.83
2022-08-17T15:48:41.714Z,3.60
2022-08-17T15:51:17.151Z,4.07
2022-08-17T15:53:46.636Z,4.00
2022-08-17T15:56:14.890Z,4.18
2022-08-17T15:58:43.597Z,4.07
2022-08-17T16:01:14.773Z,4.05
2022-08-17T16:04:04.821Z,4.40
2022-08-17T16:06:34.440Z,4.07
2022-08-17T16:09:01.465Z,4.32
2022-08-17T16:11:28.199Z,3.80
2022-08-17T16:13:56.197Z,4.32
2022-08-17T16:16:23.653Z,4.45
2022-08-17T16:18:53.628Z,4.35
2022-08-17T16:21:25.668Z,4.15
2022-08-17T16:24:02.375Z,4.00
2022-08-17T16:26:31.006Z,3.95
2022-08-17T16:29:01.093Z,4.45
2022-08-17T16:31:28.076Z,3.97
2022-08-17T16:34:15.496Z,4.05
2022-08-17T16:36:53.717Z,4.13
2022-08-17T16:39:23.527Z,4.50
2022-08-17T16:41:50.214Z,4.20
2022-08-17T16:44:19.295Z,4.07
2022-08-17T16:46:47.912Z,3.92
2022-08-17T16:49:36.039Z,4.00
2022-08-17T16:52:10.332Z,3.95
2022-08-17T16:54:40.467Z,4.32
2022-08-17T16:57:07.270Z,4.38
2022-08-17T16:59:42.134Z,4.20
2022-08-17T17:02:23.386Z,3.97
2022-08-17T17:05:29.247Z,4.15
2022-08-17T17:07:55.887Z,4.70
2022-08-17T17:10:36.971Z,4.22
2022-08-17T17:13:14.184Z,4.32
2022-08-17T17:15:55.443Z,4.20
2022-08-17T17:18:31.609Z,3.78
2022-08-17T17:20:59.267Z,4.38
2022-08-17T17:23:43.484Z,3.88
2022-08-17T17:26:22.287Z,3.85
2022-08-17T17:29:00.664Z,4.13
2022-08-17T17:31:38.134Z,4.32
2022-08-17T17:34:07.676Z,3.95
2022-08-17T17:36:40.539Z,4.35
2022-08-17T17:39:16.884Z,4.18
2022-08-17T17:41:56.635Z,4.10
2022-08-17T17:44:40.918Z,3.97
2022-08-17T17:47:07.793Z,4.20
2022-08-17T17:49:38.583Z,3.83
2022-08-17T17:52:38.152Z,3.78
2022-08-17T17:55:17.809Z,4.25
2022-08-17T17:58:22.116Z,4.03
2022-08-17T18:00:51.573Z,4.22
2022-08-17T18:03:46.639Z,3.85
2022-08-17T18:06:36.779Z,3.13
2022-08-17T18:09:19.242Z,3.88
2022-08-17T18:12:21.387Z,3.53
2022-08-17T18:15:03.522Z,3.42
2022-08-17T18:17:30.901Z,3.60
2022-08-17T18:19:57.635Z,3.65
2022-08-17T18:22:25.530Z,3.45
2022-08-17T18:24:58.186Z,3.60
2022-08-17T18:27:42.291Z,3.53
2022-08-17T18:30:14.899Z,3.58
2022-08-17T18:32:46.307Z,4.20
2022-08-17T18:35:15.843Z,3.67
2022-08-17T18:37:50.518Z,3.60
2022-08-17T18:40:17.662Z,3.60
2022-08-17T18:42:55.428Z,4.10
2022-08-17T18:45:47.047Z,4.07
2022-08-17T18:48:27.128Z,3.78
2022-08-17T18:50:58.630Z,3.92
2022-08-17T18:53:33.278Z,4.00
2022-08-17T18:56:25.600Z,4.40
2022-08-17T18:59:06.680Z,4.43
2022-08-17T19:01:59.172Z,3.88
2022-08-17T19:04:39.229Z,4.20
2022-08-17T19:07:34.180Z,4.38
2022-08-17T19:10:10.187Z,3.80
2022-08-17T19:12:43.478Z,4.18
2022-08-17T19:15:14.375Z,3.90
2022-08-17T19:18:01.924Z,4.32
2022-08-17T19:20:38.714Z,4.32
2022-08-17T19:23:11.102Z,4.10
2022-08-17T19:25:46.126Z,4.00
2022-08-17T19:28:27.679Z,4.47
2022-08-17T19:31:19.239Z,4.10
2022-08-17T19:33:47.987Z,3.85
2022-08-17T19:36:26.074Z,4.15
2022-08-17T19:39:06.251Z,3.92
2022-08-17T19:41:42.899Z,4.50
2022-08-17T19:44:46.956Z,4.32
2022-08-17T19:47:53.291Z,4.32
2022-08-17T19:50:23.440Z,4.82
2022-08-17T19:52:50.080Z,4.78
2022-08-17T19:55:33.176Z,4.28
2022-08-17T19:58:03.938Z,4.47
2022-08-17T20:00:32.183Z,4.28
2022-08-17T20:03:22.088Z,4.38
2022-08-17T20:06:12.148Z,4.50
2022-08-17T20:08:47.651Z,5.07
2022-08-17T20:11:31.283Z,3.83
2022-08-17T20:14:15.332Z,4.03
2022-08-17T20:16:42.788Z,4.60
2022-08-17T20:19:30.179Z,4.97
2022-08-17T20:22:00.198Z,5.50
2022-08-17T20:24:53.127Z,4.90
2022-08-17T20:27:34.403Z,5.88
2022-08-17T20:30:29.718Z,5.20
2022-08-17T20:32:58.008Z,5.68
2022-08-17T20:35:28.518Z,5.65
2022-08-17T20:38:02.191Z,5.13
2022-08-17T20:40:33.083Z,5.30
2022-08-17T20:43:19.889Z,6.82
2022-08-17T20:46:06.251Z,6.47
2022-08-17T20:48:46.594Z,6.70
2022-08-17T20:51:27.502Z,6.70
2022-08-17T20:53:56.776Z,7.53
2022-08-17T20:56:46.307Z,5.88
2022-08-17T20:59:36.241Z,5.95
2022-08-17T21:02:17.723Z,5.57
2022-08-17T21:04:52.838Z,6.40
2022-08-17T21:07:53.510Z,6.72
2022-08-17T21:10:26.587Z,7.22
2022-08-17T21:13:08.085Z,7.22
2022-08-17T21:15:51.821Z,7.20
2022-08-17T21:18:40.465Z,7.30
2022-08-17T21:21:18.060Z,6.72
2022-08-17T21:24:09.538Z,6.15
2022-08-17T21:27:07.125Z,6.55
2022-08-17T21:29:40.425Z,6.32
2022-08-17T21:32:09.498Z,7.40
2022-08-17T21:34:37.537Z,6.57
2022-08-17T21:37:23.402Z,6.47
2022-08-17T21:39:56.728Z,7.00
2022-08-17T21:42:29.427Z,6.03
2022-08-17T21:45:22.199Z,6.20
2022-08-17T21:50:36.603Z,5.90
2022-08-17T21:53:05.011Z,5.65
2022-08-17T21:55:34.243Z,5.70
2022-08-17T21:58:14.403Z,5.90
2022-08-17T22:00:44.433Z,5.05
2022-08-17T22:03:24.583Z,5.43
2022-08-17T22:05:51.439Z,5.80
2022-08-17T22:08:23.645Z,6.13
2022-08-17T22:10:59.273Z,5.40
2022-08-17T22:13:29.687Z,5.30
2022-08-17T22:16:27.763Z,5.43
2022-08-17T22:19:00.233Z,6.10
2022-08-17T22:21:27.450Z,5.88
2022-08-17T22:24:21.373Z,5.93
2022-08-17T22:27:11.030Z,5.90
2022-08-17T22:29:57.759Z,6.35
2022-08-17T22:32:31.274Z,5.70
2022-08-17T22:35:19.414Z,6.28
2022-08-17T22:37:46.658Z,5.85
2022-08-17T22:40:30.318Z,6.38
2022-08-17T22:42:58.983Z,6.57
2022-08-17T22:45:28.284Z,6.25
2022-08-17T22:47:58.494Z,6.65
2022-08-17T22:50:28.579Z,5.75
2022-08-17T22:53:36.925Z,6.00
2022-08-17T22:56:22.974Z,5.88
2022-08-17T22:59:17.863Z,6.25
2022-08-17T23:02:05.437Z,6.05
2022-08-17T23:04:35.669Z,6.45
2022-08-17T23:07:02.334Z,5.95
2022-08-17T23:09:29.774Z,6.57
2022-08-17T23:11:58.477Z,6.18
2022-08-17T23:14:31.262Z,5.47
2022-08-17T23:17:01.761Z,5.70
2022-08-17T23:19:31.634Z,5.78
2022-08-17T23:21:59.531Z,5.25
2022-08-17T23:24:29.673Z,5.45
2022-08-17T23:26:57.995Z,6.05
2022-08-17T23:29:28.851Z,5.63
2022-08-17T23:31:59.572Z,5.50
2022-08-17T23:34:27.954Z,5.60
2022-08-17T23:36:55.746Z,5.40
2022-08-17T23:39:27.575Z,5.35
2022-08-17T23:42:00.293Z,5.68
2022-08-17T23:44:28.600Z,5.32
2022-08-17T23:46:55.655Z,5.63
2022-08-17T23:49:23.620Z,5.50
2022-08-17T23:51:50.440Z,5.13
2022-08-17T23:54:31.316Z,5.68
2022-08-17T23:56:58.063Z,5.60
2022-08-17T23:59:25.228Z,5.15
